Time;durP1;ratioP1;P1;durP2;ratioP2;P2;SDS_P1;SDS_P2;PMS_P1;PMS_P2;Temp;Humidity;BMP_temperature;BMP_pressure;BME280_temperature;BME280_humidity;BME280_pressure;Samples;Min_cycle;Max_cycle;Signal;HPM_P1;HPM_P2
2023/07/13 00:02:15;;;;;;;;;;;17.00;99.90;;;;;;5074432;28;19933;-43
2023/07/13 00:04:42;;;;;;;;;;;17.00;99.90;;;;;;5063895;28;20291;-44
2023/07/13 00:07:09;;;;;;;;;;;17.00;99.90;;;;;;5072693;28;19931;-44
2023/07/13 00:09:36;;;;;;;;;;;17.00;99.90;;;;;;5071329;28;20372;-44
2023/07/13 00:12:03;;;;;;;;;;;17.00;99.90;;;;;;5073510;28;19931;-43
2023/07/13 00:14:32;;;;;;;;;;;17.00;99.90;;;;;;5073657;28;19977;-43
2023/07/13 00:17:00;;;;;;;;;;;16.90;99.90;;;;;;5074294;28;19964;-43
2023/07/13 00:19:27;;;;;;;;;;;16.90;99.90;;;;;;5072913;28;19932;-43
2023/07/13 00:21:55;;;;;;;;;;;16.90;99.90;;;;;;5059941;28;20011;-42
2023/07/13 00:24:23;;;;;;;;;;;16.90;99.90;;;;;;5084181;28;20376;-44
2023/07/13 00:26:50;;;;;;;;;;;16.90;99.90;;;;;;5086708;28;19925;-43
2023/07/13 00:29:17;;;;;;;;;;;16.90;99.90;;;;;;5061145;28;19925;-43
2023/07/13 00:31:46;;;;;;;;;;;16.90;99.90;;;;;;5063045;28;19931;-43
2023/07/13 00:34:12;;;;;;;;;;;16.90;99.90;;;;;;5072612;28;20386;-44
2023/07/13 00:36:39;;;;;;;;;;;16.90;99.90;;;;;;5072252;28;19924;-43
2023/07/13 00:39:06;;;;;;;;;;;16.90;99.90;;;;;;5058747;28;20376;-43
2023/07/13 00:41:33;;;;;;;;;;;16.90;99.90;;;;;;5073614;28;20285;-44
2023/07/13 00:44:00;;;;;;;;;;;16.90;99.90;;;;;;5104790;28;19924;-43
2023/07/13 00:46:28;;;;;;;;;;;16.90;99.90;;;;;;5092803;28;19932;-44
2023/07/13 00:48:57;;;;;;;;;;;16.90;99.90;;;;;;5061554;28;19935;-43
2023/07/13 00:51:25;;;;;;;;;;;16.90;99.90;;;;;;5056531;28;19947;-44
2023/07/13 00:53:52;;;;;;;;;;;16.80;99.90;;;;;;5073054;28;20338;-43
2023/07/13 00:56:19;;;;;;;;;;;16.80;99.90;;;;;;5073157;28;20015;-43
2023/07/13 00:58:45;;;;;;;;;;;16.80;99.90;;;;;;5071631;28;20295;-43
2023/07/13 01:01:13;;;;;;;;;;;16.80;99.90;;;;;;5079032;28;19932;-43
2023/07/13 01:03:41;;;;;;;;;;;16.70;99.90;;;;;;5079744;28;19925;-44
2023/07/13 01:06:09;;;;;;;;;;;16.70;99.90;;;;;;5084639;28;19931;-43
2023/07/13 01:08:36;;;;;;;;;;;16.70;99.90;;;;;;5081274;28;20372;-44
2023/07/13 01:11:03;;;;;;;;;;;16.70;99.90;;;;;;5082269;28;19931;-43
2023/07/13 01:13:29;;;;;;;;;;;16.70;99.90;;;;;;5079138;28;19931;-43
2023/07/13 01:15:57;;;;;;;;;;;16.70;99.90;;;;;;5076116;28;19925;-43
2023/07/13 01:18:24;;;;;;;;;;;16.70;99.90;;;;;;5053761;28;19933;-44
2023/07/13 01:20:53;;;;;;;;;;;16.70;99.90;;;;;;5067156;28;20463;-43
2023/07/13 01:23:20;;;;;;;;;;;16.70;99.90;;;;;;5074359;28;19925;-43
2023/07/13 01:25:46;;;;;;;;;;;16.70;99.90;;;;;;5068460;28;19931;-43
2023/07/13 01:28:13;;;;;;;;;;;16.70;99.90;;;;;;5075036;28;19943;-43
2023/07/13 01:30:40;;;;;;;;;;;16.70;99.90;;;;;;5067174;28;19925;-42
2023/07/13 01:33:07;;;;;;;;;;;16.70;99.90;;;;;;5070433;28;19935;-43
2023/07/13 01:35:34;;;;;;;;;;;16.70;99.90;;;;;;5093817;28;19946;-44
2023/07/13 01:38:02;;;;;;;;;;;16.70;99.90;;;;;;5069786;28;19925;-43
2023/07/13 01:40:29;;;;;;;;;;;16.70;99.90;;;;;;5058574;28;19968;-43
2023/07/13 01:42:56;;;;;;;;;;;16.70;99.90;;;;;;5052529;28;20004;-43
2023/07/13 01:45:23;;;;;;;;;;;16.60;99.90;;;;;;5063636;28;19932;-44
2023/07/13 01:47:49;;;;;;;;;;;16.60;99.90;;;;;;5069572;28;20407;-44
2023/07/13 01:50:16;;;;;;;;;;;16.60;99.90;;;;;;5069721;28;19932;-42
2023/07/13 01:52:43;;;;;;;;;;;16.60;99.90;;;;;;5083181;28;19932;-44
2023/07/13 01:55:11;;;;;;;;;;;16.60;99.90;;;;;;5071117;28;19931;-44
2023/07/13 01:57:38;;;;;;;;;;;16.50;99.90;;;;;;5070594;28;19925;-43
2023/07/13 02:00:05;;;;;;;;;;;16.50;99.90;;;;;;5069884;28;19928;-42
2023/07/13 02:02:32;;;;;;;;;;;16.50;99.90;;;;;;5070344;28;19924;-43
2023/07/13 02:04:59;;;;;;;;;;;16.50;99.90;;;;;;5073508;28;19925;-43
2023/07/13 02:07:26;;;;;;;;;;;16.40;99.90;;;;;;5071049;28;20319;-43
2023/07/13 02:09:52;;;;;;;;;;;16.40;99.90;;;;;;5082467;28;20011;-43
2023/07/13 02:12:20;;;;;;;;;;;16.40;99.90;;;;;;5070173;28;20319;-44
2023/07/13 02:14:48;;;;;;;;;;;16.40;99.90;;;;;;5071469;28;19924;-43
2023/07/13 02:17:14;;;;;;;;;;;16.30;99.90;;;;;;5070964;28;19924;-43
2023/07/13 02:19:41;;;;;;;;;;;16.30;99.90;;;;;;5115378;28;19925;-43
2023/07/13 02:22:08;;;;;;;;;;;16.30;99.90;;;;;;5067721;28;19932;-43
2023/07/13 02:24:35;;;;;;;;;;;16.30;99.90;;;;;;5071673;28;19929;-43
2023/07/13 02:27:01;;;;;;;;;;;16.30;99.90;;;;;;5070415;28;19956;-43
2023/07/13 02:29:29;;;;;;;;;;;16.20;99.90;;;;;;5073941;28;19932;-43
2023/07/13 02:31:56;;;;;;;;;;;16.20;99.90;;;;;;5065697;28;20003;-43
2023/07/13 02:34:23;;;;;;;;;;;16.20;99.90;;;;;;5091209;28;20299;-43
2023/07/13 02:36:50;;;;;;;;;;;16.20;99.90;;;;;;5075420;28;19926;-43
2023/07/13 02:39:16;;;;;;;;;;;16.10;99.90;;;;;;5085642;28;20294;-44
2023/07/13 02:41:43;;;;;;;;;;;16.10;99.90;;;;;;5056392;28;20418;-43
2023/07/13 02:44:10;;;;;;;;;;;16.10;99.90;;;;;;5055743;28;19928;-43
2023/07/13 02:46:38;;;;;;;;;;;16.10;99.90;;;;;;5073540;28;19924;-42
2023/07/13 02:49:05;;;;;;;;;;;16.00;99.90;;;;;;5112681;27;19978;-43
2023/07/13 02:51:33;;;;;;;;;;;16.00;99.90;;;;;;5081713;28;20311;-43
2023/07/13 02:54:00;;;;;;;;;;;16.00;99.90;;;;;;5075190;28;19924;-43
2023/07/13 02:56:27;;;;;;;;;;;16.00;99.90;;;;;;5073358;28;19931;-44
2023/07/13 02:58:54;;;;;;;;;;;15.90;99.90;;;;;;5076144;28;19925;-42
2023/07/13 03:01:21;;;;;;;;;;;15.90;99.90;;;;;;5071458;28;19947;-43
2023/07/13 03:03:50;;;;;;;;;;;15.90;99.90;;;;;;5065826;28;19932;-43
2023/07/13 03:06:16;;;;;;;;;;;15.90;99.90;;;;;;5073584;28;19932;-43
2023/07/13 03:08:43;;;;;;;;;;;15.90;99.90;;;;;;5077021;28;19924;-44
2023/07/13 03:11:11;;;;;;;;;;;15.90;99.90;;;;;;5075434;28;19925;-44
2023/07/13 03:13:38;;;;;;;;;;;15.90;99.90;;;;;;5106218;28;20373;-43
2023/07/13 03:16:05;;;;;;;;;;;15.90;99.90;;;;;;5073874;28;19934;-43
2023/07/13 03:18:32;;;;;;;;;;;15.90;99.90;;;;;;5078762;28;19924;-43
2023/07/13 03:21:00;;;;;;;;;;;15.80;99.90;;;;;;5082848;28;19929;-44
2023/07/13 03:23:27;;;;;;;;;;;15.80;99.90;;;;;;5108152;28;19924;-43
2023/07/13 03:26:01;;;;;;;;;;;15.80;99.90;;;;;;5066765;28;19925;-42
2023/07/13 03:28:28;;;;;;;;;;;15.80;99.90;;;;;;5063197;28;20023;-43
2023/07/13 03:31:00;;;;;;;;;;;15.80;99.90;;;;;;5086529;28;19954;-43
2023/07/13 03:33:26;;;;;;;;;;;15.80;99.90;;;;;;5070943;28;19925;-43
2023/07/13 03:35:53;;;;;;;;;;;15.80;99.90;;;;;;5072497;28;19928;-42
2023/07/13 03:38:21;;;;;;;;;;;15.90;99.90;;;;;;5060170;28;19924;-43
2023/07/13 03:40:48;;;;;;;;;;;15.80;99.90;;;;;;5082168;28;19924;-44
2023/07/13 03:43:15;;;;;;;;;;;15.90;99.90;;;;;;5073767;28;20407;-43
2023/07/13 03:45:42;;;;;;;;;;;15.90;99.90;;;;;;5065260;28;19932;-43
2023/07/13 03:48:09;;;;;;;;;;;15.90;99.90;;;;;;5070143;28;19951;-43
2023/07/13 03:50:35;;;;;;;;;;;15.90;99.90;;;;;;5112718;27;19928;-44
2023/07/13 03:53:02;;;;;;;;;;;15.90;99.90;;;;;;5074931;28;20482;-42
2023/07/13 03:55:30;;;;;;;;;;;15.90;99.90;;;;;;5072569;28;19924;-44
2023/07/13 03:57:58;;;;;;;;;;;15.90;99.90;;;;;;5086522;28;20011;-44
2023/07/13 04:00:25;;;;;;;;;;;16.00;99.90;;;;;;5061546;28;19932;-43
2023/07/13 04:02:52;;;;;;;;;;;15.90;99.90;;;;;;5074729;28;19925;-43
2023/07/13 04:05:19;;;;;;;;;;;15.90;99.90;;;;;;5082206;28;19924;-42
2023/07/13 04:07:44;;;;;;;;;;;15.90;99.90;;;;;;5078516;28;19924;-43
2023/07/13 04:10:11;;;;;;;;;;;15.90;99.90;;;;;;5073231;28;20324;-43
2023/07/13 04:12:39;;;;;;;;;;;15.90;99.90;;;;;;5072548;28;19939;-43
2023/07/13 04:15:07;;;;;;;;;;;15.90;99.90;;;;;;5105182;28;19924;-44
2023/07/13 04:17:34;;;;;;;;;;;15.90;99.90;;;;;;5064714;28;19924;-44
2023/07/13 04:20:00;;;;;;;;;;;16.00;99.90;;;;;;5063339;28;20023;-43
2023/07/13 04:22:27;;;;;;;;;;;16.00;99.90;;;;;;5074172;28;19925;-44
2023/07/13 04:24:54;;;;;;;;;;;16.00;99.90;;;;;;5072085;28;19924;-44
2023/07/13 04:27:21;;;;;;;;;;;16.00;99.90;;;;;;5072276;28;19924;-44
2023/07/13 04:29:49;;;;;;;;;;;16.00;99.90;;;;;;5071132;28;19931;-43
2023/07/13 04:32:16;;;;;;;;;;;16.00;99.90;;;;;;5056266;28;19929;-42
2023/07/13 04:34:43;;;;;;;;;;;16.00;99.90;;;;;;5062696;28;20406;-43
2023/07/13 04:37:09;;;;;;;;;;;16.00;99.90;;;;;;5072857;28;20003;-44
2023/07/13 04:39:37;;;;;;;;;;;16.00;99.90;;;;;;5083409;28;19955;-44
2023/07/13 04:42:04;;;;;;;;;;;16.00;99.90;;;;;;5078804;28;19954;-44
2023/07/13 04:44:31;;;;;;;;;;;16.00;99.90;;;;;;5071821;28;20372;-43
2023/07/13 04:46:59;;;;;;;;;;;16.00;99.90;;;;;;5066597;28;19932;-44
2023/07/13 04:49:26;;;;;;;;;;;16.10;99.90;;;;;;5076107;28;20303;-43
2023/07/13 04:51:54;;;;;;;;;;;16.10;99.90;;;;;;5076674;28;20293;-43
2023/07/13 04:54:21;;;;;;;;;;;16.10;99.90;;;;;;5073407;28;19932;-43
2023/07/13 04:56:48;;;;;;;;;;;16.10;99.90;;;;;;5069882;28;19925;-43
2023/07/13 04:59:15;;;;;;;;;;;16.10;99.90;;;;;;5069204;28;19924;-43
2023/07/13 05:01:41;;;;;;;;;;;16.20;99.90;;;;;;5072585;28;19928;-42
2023/07/13 05:04:10;;;;;;;;;;;16.20;99.90;;;;;;5066739;28;20019;-43
2023/07/13 05:06:36;;;;;;;;;;;16.20;99.90;;;;;;5056182;28;20303;-42
2023/07/13 05:09:04;;;;;;;;;;;16.20;99.90;;;;;;5052641;28;19924;-43
2023/07/13 05:11:30;;;;;;;;;;;16.20;99.90;;;;;;5063487;28;19924;-42
2023/07/13 05:13:57;;;;;;;;;;;16.20;99.90;;;;;;5054424;28;20379;-43
2023/07/13 05:16:24;;;;;;;;;;;16.20;99.90;;;;;;5061849;28;19924;-43
2023/07/13 05:18:51;;;;;;;;;;;16.30;99.90;;;;;;5067874;28;19932;-43
2023/07/13 05:21:19;;;;;;;;;;;16.30;99.90;;;;;;5069127;28;19933;-42
2023/07/13 05:23:46;;;;;;;;;;;16.40;99.90;;;;;;5109478;27;19932;-43
2023/07/13 05:26:12;;;;;;;;;;;16.40;99.90;;;;;;5093013;28;19928;-44
2023/07/13 05:28:39;;;;;;;;;;;16.50;99.90;;;;;;5068168;28;19930;-44
2023/07/13 05:31:06;;;;;;;;;;;16.50;99.90;;;;;;5059988;28;19929;-43
2023/07/13 05:33:33;;;;;;;;;;;16.60;99.90;;;;;;5055949;28;20047;-43
2023/07/13 05:36:00;;;;;;;;;;;16.60;99.90;;;;;;5086296;28;19925;-43
2023/07/13 05:38:28;;;;;;;;;;;16.70;99.90;;;;;;5104070;28;20342;-44
2023/07/13 05:40:56;;;;;;;;;;;16.80;99.90;;;;;;5103831;28;19998;-43
2023/07/13 05:43:22;;;;;;;;;;;16.90;99.90;;;;;;5070791;28;19929;-43
2023/07/13 05:45:49;;;;;;;;;;;16.90;99.90;;;;;;5075786;28;19932;-43
2023/07/13 05:48:16;;;;;;;;;;;17.10;99.90;;;;;;5071230;28;19955;-43
2023/07/13 05:50:43;;;;;;;;;;;17.10;99.90;;;;;;5087831;28;19931;-43
2023/07/13 05:53:09;;;;;;;;;;;17.20;99.90;;;;;;5071994;28;20387;-43
2023/07/13 05:55:38;;;;;;;;;;;17.30;99.90;;;;;;5063830;28;20287;-43
2023/07/13 05:58:04;;;;;;;;;;;17.40;99.90;;;;;;5052910;28;19925;-43
2023/07/13 06:00:31;;;;;;;;;;;17.50;99.90;;;;;;5068309;28;20011;-44
2023/07/13 06:02:58;;;;;;;;;;;17.50;99.90;;;;;;5071498;28;19936;-44
2023/07/13 06:05:25;;;;;;;;;;;17.60;99.90;;;;;;5069127;28;19932;-43
2023/07/13 06:07:52;;;;;;;;;;;17.70;99.90;;;;;;5063666;28;19925;-43
2023/07/13 06:10:19;;;;;;;;;;;17.80;99.90;;;;;;5076165;28;19924;-43
2023/07/13 06:12:47;;;;;;;;;;;17.90;99.90;;;;;;5069629;28;20384;-44
2023/07/13 06:15:14;;;;;;;;;;;18.10;99.90;;;;;;5072136;28;19932;-43
2023/07/13 06:17:40;;;;;;;;;;;18.20;99.90;;;;;;5065419;28;19925;-43
2023/07/13 06:20:08;;;;;;;;;;;18.30;99.90;;;;;;5055485;28;20337;-43
2023/07/13 06:22:35;;;;;;;;;;;18.40;99.90;;;;;;5077078;28;19928;-44
2023/07/13 06:25:01;;;;;;;;;;;18.50;99.90;;;;;;5071240;28;19934;-43
2023/07/13 06:27:28;;;;;;;;;;;18.60;99.90;;;;;;5068097;28;20381;-43
2023/07/13 06:29:56;;;;;;;;;;;18.70;99.90;;;;;;5061860;28;19924;-43
2023/07/13 06:32:23;;;;;;;;;;;18.80;99.90;;;;;;5051657;28;19928;-44
2023/07/13 06:34:51;;;;;;;;;;;18.90;99.90;;;;;;5051445;28;20357;-44
2023/07/13 06:37:18;;;;;;;;;;;19.00;99.90;;;;;;5050825;28;19929;-43
2023/07/13 06:39:45;;;;;;;;;;;19.10;99.90;;;;;;5064279;28;19931;-44
2023/07/13 06:42:11;;;;;;;;;;;19.20;99.90;;;;;;5071862;28;19935;-43
2023/07/13 06:44:38;;;;;;;;;;;19.30;99.90;;;;;;5082147;28;20384;-44
2023/07/13 06:47:07;;;;;;;;;;;19.40;99.90;;;;;;5091565;28;19931;-43
2023/07/13 06:49:34;;;;;;;;;;;19.50;99.90;;;;;;5075304;28;19929;-44
2023/07/13 06:52:00;;;;;;;;;;;19.70;99.90;;;;;;5061694;28;20384;-44
2023/07/13 06:54:27;;;;;;;;;;;19.80;99.90;;;;;;5051900;28;19928;-44
2023/07/13 06:56:54;;;;;;;;;;;19.80;99.90;;;;;;5068956;28;19924;-44
2023/07/13 06:59:21;;;;;;;;;;;19.90;99.90;;;;;;5072543;28;19930;-43
2023/07/13 07:01:48;;;;;;;;;;;19.90;99.90;;;;;;5102947;28;19931;-43
2023/07/13 07:04:16;;;;;;;;;;;20.00;99.90;;;;;;5071851;28;20368;-44
2023/07/13 07:06:42;;;;;;;;;;;20.00;99.90;;;;;;5104910;28;19924;-43
2023/07/13 07:09:10;;;;;;;;;;;20.10;99.90;;;;;;5077910;28;20019;-44
2023/07/13 07:11:36;;;;;;;;;;;20.10;99.90;;;;;;5071914;28;19982;-44
2023/07/13 07:14:03;;;;;;;;;;;20.10;99.90;;;;;;5071671;28;19931;-44
2023/07/13 07:16:30;;;;;;;;;;;20.20;99.90;;;;;;5073899;28;19974;-44
2023/07/13 07:18:57;;;;;;;;;;;20.30;99.90;;;;;;5079539;28;19924;-43
2023/07/13 07:21:25;;;;;;;;;;;20.30;99.90;;;;;;5111008;27;19925;-44
2023/07/13 07:23:52;;;;;;;;;;;20.30;99.90;;;;;;5073427;28;19925;-44
2023/07/13 07:26:19;;;;;;;;;;;20.40;99.90;;;;;;5073110;28;19924;-43
2023/07/13 07:28:46;;;;;;;;;;;20.40;99.90;;;;;;5078000;28;19930;-43
2023/07/13 07:31:12;;;;;;;;;;;20.40;99.90;;;;;;5077630;28;19931;-43
2023/07/13 07:33:39;;;;;;;;;;;20.40;99.90;;;;;;5107288;28;19924;-44
2023/07/13 07:36:06;;;;;;;;;;;20.40;99.90;;;;;;5074149;28;19931;-42
2023/07/13 07:38:34;;;;;;;;;;;20.40;99.90;;;;;;5076150;28;19924;-43
2023/07/13 07:41:03;;;;;;;;;;;20.50;99.90;;;;;;5079158;28;19924;-44
2023/07/13 07:43:30;;;;;;;;;;;20.40;99.90;;;;;;5074664;28;19924;-44
2023/07/13 07:45:56;;;;;;;;;;;20.40;99.90;;;;;;5073902;28;19929;-43
2023/07/13 07:48:23;;;;;;;;;;;20.40;99.90;;;;;;5073983;28;19931;-44
2023/07/13 07:50:50;;;;;;;;;;;20.40;99.90;;;;;;5080866;28;19931;-43
2023/07/13 07:53:17;;;;;;;;;;;20.40;99.90;;;;;;5107736;28;19925;-44
2023/07/13 07:55:45;;;;;;;;;;;20.30;99.90;;;;;;5072601;28;19925;-44
2023/07/13 07:58:12;;;;;;;;;;;20.30;99.90;;;;;;5074401;28;19924;-43
2023/07/13 08:00:38;;;;;;;;;;;20.40;99.90;;;;;;5081223;28;19937;-44
2023/07/13 08:03:05;;;;;;;;;;;20.50;99.90;;;;;;5094570;28;19924;-44
2023/07/13 08:05:32;;;;;;;;;;;20.60;99.90;;;;;;5068182;28;20023;-44
2023/07/13 08:07:59;;;;;;;;;;;20.80;99.90;;;;;;5054081;28;20336;-42
2023/07/13 08:10:26;;;;;;;;;;;21.00;99.90;;;;;;5072179;28;19935;-43
2023/07/13 08:12:54;;;;;;;;;;;21.10;99.90;;;;;;5074315;28;20332;-43
2023/07/13 08:15:22;;;;;;;;;;;21.20;99.90;;;;;;5078851;28;20463;-43
2023/07/13 08:17:49;;;;;;;;;;;21.10;99.90;;;;;;5086460;28;19971;-44
2023/07/13 08:20:15;;;;;;;;;;;21.10;99.90;;;;;;5074106;28;19925;-43
2023/07/13 08:22:42;;;;;;;;;;;21.00;99.90;;;;;;5053577;28;20432;-43
2023/07/13 08:25:09;;;;;;;;;;;20.90;99.90;;;;;;5055361;28;19929;-44
2023/07/13 08:27:36;;;;;;;;;;;20.70;99.90;;;;;;5090771;28;20415;-44
2023/07/13 08:30:05;;;;;;;;;;;20.60;99.90;;;;;;5069967;28;20007;-42
2023/07/13 08:32:32;;;;;;;;;;;20.50;99.90;;;;;;5072418;28;19929;-43
2023/07/13 08:34:59;;;;;;;;;;;20.40;99.90;;;;;;5070110;28;19936;-43
2023/07/13 08:37:25;;;;;;;;;;;20.30;99.90;;;;;;5072879;28;19924;-42
2023/07/13 08:39:52;;;;;;;;;;;20.20;99.90;;;;;;5076865;28;19930;-43
2023/07/13 08:42:23;;;;;;;;;;;20.20;99.90;;;;;;5065233;28;20273;-43
2023/07/13 08:44:52;;;;;;;;;;;20.10;99.90;;;;;;5076266;28;20376;-43
2023/07/13 08:47:21;;;;;;;;;;;20.10;99.90;;;;;;5074958;28;19925;-43
2023/07/13 08:49:47;;;;;;;;;;;20.00;99.90;;;;;;5072062;28;20019;-43
2023/07/13 08:52:16;;;;;;;;;;;20.00;99.90;;;;;;5062259;28;19925;-43
2023/07/13 08:54:44;;;;;;;;;;;19.90;99.90;;;;;;5063802;28;19925;-43
2023/07/13 08:57:13;;;;;;;;;;;19.90;99.90;;;;;;5073636;28;20303;-44
2023/07/13 08:59:40;;;;;;;;;;;19.80;99.90;;;;;;5071586;28;19928;-42
2023/07/13 09:02:10;;;;;;;;;;;19.70;99.90;;;;;;5072850;28;20413;-43
2023/07/13 09:04:40;;;;;;;;;;;19.50;99.90;;;;;;5080447;28;19924;-43
2023/07/13 09:07:08;;;;;;;;;;;19.50;99.90;;;;;;5091395;28;19924;-43
2023/07/13 09:09:37;;;;;;;;;;;19.40;99.90;;;;;;5072893;28;19981;-42
2023/07/13 09:12:08;;;;;;;;;;;19.30;99.90;;;;;;5071848;28;19931;-44
2023/07/13 09:14:38;;;;;;;;;;;19.20;99.90;;;;;;5104773;28;19931;-44
2023/07/13 09:17:05;;;;;;;;;;;19.20;99.90;;;;;;5112499;27;20384;-43
2023/07/13 09:19:32;;;;;;;;;;;19.20;99.90;;;;;;5086272;28;19924;-45
2023/07/13 09:22:00;;;;;;;;;;;19.10;99.90;;;;;;5073046;28;19928;-44
2023/07/13 09:24:32;;;;;;;;;;;19.00;99.90;;;;;;5075011;28;19924;-44
2023/07/13 09:26:58;;;;;;;;;;;18.90;99.90;;;;;;5109576;28;19934;-44
2023/07/13 09:29:27;;;;;;;;;;;18.70;99.90;;;;;;5078067;28;19931;-43
2023/07/13 09:31:55;;;;;;;;;;;18.60;99.90;;;;;;5062732;28;19924;-43
2023/07/13 09:34:21;;;;;;;;;;;18.50;99.90;;;;;;5058423;28;19933;-45
2023/07/13 09:36:48;;;;;;;;;;;18.30;99.90;;;;;;5072397;28;20426;-45
2023/07/13 09:39:16;;;;;;;;;;;18.20;99.90;;;;;;5070697;28;20300;-44
2023/07/13 09:41:46;;;;;;;;;;;18.10;99.90;;;;;;5071111;28;19931;-43
2023/07/13 09:44:13;;;;;;;;;;;18.10;99.90;;;;;;5070663;28;19924;-43
2023/07/13 09:46:41;;;;;;;;;;;18.20;99.90;;;;;;5081905;28;20403;-43
2023/07/13 09:49:09;;;;;;;;;;;18.30;99.90;;;;;;5091500;28;19924;-44
2023/07/13 09:51:36;;;;;;;;;;;18.50;99.90;;;;;;5092623;28;20018;-44
2023/07/13 09:54:03;;;;;;;;;;;18.70;99.90;;;;;;5086721;28;19938;-44
2023/07/13 09:56:31;;;;;;;;;;;18.90;99.90;;;;;;5074300;28;19925;-44
2023/07/13 09:58:58;;;;;;;;;;;19.10;99.90;;;;;;5054910;28;19929;-44
2023/07/13 10:01:43;;;;;;;;;;;19.30;99.90;;;;;;5058648;28;20363;-44
2023/07/13 10:04:13;;;;;;;;;;;19.50;99.90;;;;;;5092495;28;19924;-45
2023/07/13 10:06:42;;;;;;;;;;;19.70;99.90;;;;;;5092908;28;19928;-44
2023/07/13 10:09:09;;;;;;;;;;;19.80;99.90;;;;;;5078386;28;20394;-44
2023/07/13 10:11:37;;;;;;;;;;;20.00;99.90;;;;;;5075945;28;19930;-44
2023/07/13 10:14:10;;;;;;;;;;;20.20;99.90;;;;;;5092307;28;19930;-44
2023/07/13 10:16:37;;;;;;;;;;;20.40;99.90;;;;;;5091567;28;19923;-44
2023/07/13 10:19:05;;;;;;;;;;;20.60;99.90;;;;;;5081681;28;19928;-44
2023/07/13 10:21:33;;;;;;;;;;;20.80;99.90;;;;;;5070583;28;20021;-43
2023/07/13 10:24:00;;;;;;;;;;;21.00;99.90;;;;;;5076838;28;20564;-44
2023/07/13 10:26:28;;;;;;;;;;;21.10;99.90;;;;;;5076002;28;20449;-45
2023/07/13 10:28:57;;;;;;;;;;;21.10;99.90;;;;;;5078721;28;19932;-44
2023/07/13 10:31:24;;;;;;;;;;;21.20;99.90;;;;;;5072021;28;20387;-44
2023/07/13 10:33:51;;;;;;;;;;;21.40;99.90;;;;;;5072183;28;19970;-44
2023/07/13 10:36:28;;;;;;;;;;;21.60;99.90;;;;;;5071095;28;19924;-44
2023/07/13 10:38:55;;;;;;;;;;;21.80;99.90;;;;;;5080253;28;19931;-44
2023/07/13 10:41:22;;;;;;;;;;;21.90;99.90;;;;;;5113208;28;19924;-44
2023/07/13 10:43:50;;;;;;;;;;;22.10;99.90;;;;;;5058631;28;19925;-44
2023/07/13 10:46:20;;;;;;;;;;;22.30;99.90;;;;;;5050832;28;19929;-44
2023/07/13 10:48:47;;;;;;;;;;;22.50;99.90;;;;;;5102271;27;20371;-44
2023/07/13 10:51:15;;;;;;;;;;;22.50;99.90;;;;;;5079852;28;20214;-44
2023/07/13 10:53:42;;;;;;;;;;;22.50;99.90;;;;;;5069768;28;19932;-44
2023/07/13 10:56:18;;;;;;;;;;;22.40;99.90;;;;;;5098586;27;20093;-44
2023/07/13 10:58:45;;;;;;;;;;;22.30;99.90;;;;;;5058337;28;19925;-44
2023/07/13 11:01:13;;;;;;;;;;;22.20;99.90;;;;;;5068508;28;19924;-44
2023/07/13 11:03:49;;;;;;;;;;;22.10;99.90;;;;;;5074499;28;19928;-44
2023/07/13 11:06:16;;;;;;;;;;;21.90;99.90;;;;;;5077964;28;19924;-43
2023/07/13 11:08:52;;;;;;;;;;;21.90;99.90;;;;;;5073709;28;20297;-43
2023/07/13 11:11:36;;;;;;;;;;;21.80;99.90;;;;;;5090399;28;19936;-44
2023/07/13 11:14:04;;;;;;;;;;;21.70;99.90;;;;;;5091739;28;19969;-45
2023/07/13 11:16:38;;;;;;;;;;;21.70;99.90;;;;;;5067776;28;20015;-43
2023/07/13 11:19:26;;;;;;;;;;;21.70;99.90;;;;;;5073655;28;19925;-45
2023/07/13 11:22:02;;;;;;;;;;;21.70;99.90;;;;;;5068781;28;20410;-44
2023/07/13 11:24:29;;;;;;;;;;;21.60;99.90;;;;;;5075442;28;19928;-44
2023/07/13 11:26:56;;;;;;;;;;;21.50;99.90;;;;;;5081213;28;20372;-44
2023/07/13 11:29:25;;;;;;;;;;;21.40;99.90;;;;;;5075107;28;19924;-44
2023/07/13 11:31:52;;;;;;;;;;;21.40;99.90;;;;;;5074942;28;20295;-44
2023/07/13 11:34:22;;;;;;;;;;;21.50;99.90;;;;;;5064881;28;19925;-42
2023/07/13 11:36:49;;;;;;;;;;;21.60;99.90;;;;;;5056089;28;19929;-44
2023/07/13 11:39:18;;;;;;;;;;;21.80;99.90;;;;;;5054762;28;19940;-44
2023/07/13 11:41:45;;;;;;;;;;;22.00;99.90;;;;;;5056752;28;19931;-45
2023/07/13 11:44:13;;;;;;;;;;;22.30;99.90;;;;;;5054619;28;19935;-44
2023/07/13 11:46:39;;;;;;;;;;;22.50;99.90;;;;;;5061386;28;19933;-44
2023/07/13 11:49:06;;;;;;;;;;;22.70;99.90;;;;;;5078395;28;20394;-44
2023/07/13 11:51:35;;;;;;;;;;;22.80;99.90;;;;;;5055924;28;19975;-44
2023/07/13 11:54:03;;;;;;;;;;;22.80;99.90;;;;;;5055153;28;19978;-44
2023/07/13 11:56:32;;;;;;;;;;;22.90;99.90;;;;;;5080667;28;20027;-44
2023/07/13 11:58:58;;;;;;;;;;;23.00;99.90;;;;;;5085487;28;19955;-41
2023/07/13 12:01:31;;;;;;;;;;;23.00;99.90;;;;;;5093139;28;20287;-44
2023/07/13 12:03:58;;;;;;;;;;;23.00;99.90;;;;;;5079327;28;19931;-43
2023/07/13 12:06:27;;;;;;;;;;;23.30;99.90;;;;;;5073587;28;19924;-44
2023/07/13 12:08:58;;;;;;;;;;;23.50;99.90;;;;;;5086532;28;19924;-44
2023/07/13 12:11:25;;;;;;;;;;;23.70;99.90;;;;;;5072650;28;19924;-44
2023/07/13 12:13:52;;;;;;;;;;;23.80;99.90;;;;;;5090350;28;19924;-44
2023/07/13 12:16:25;;;;;;;;;;;23.80;99.90;;;;;;5080977;28;19932;-43
2023/07/13 12:18:53;;;;;;;;;;;23.90;99.90;;;;;;5073151;28;21465;-43
2023/07/13 12:21:20;;;;;;;;;;;24.00;99.90;;;;;;5091236;28;19939;-44
2023/07/13 12:23:49;;;;;;;;;;;24.20;99.70;;;;;;5056070;28;19925;-44
2023/07/13 12:26:17;;;;;;;;;;;24.40;97.40;;;;;;5074563;28;19928;-44
2023/07/13 12:28:45;;;;;;;;;;;24.50;95.70;;;;;;5093971;28;20288;-43
2023/07/13 12:31:23;;;;;;;;;;;24.70;95.70;;;;;;5094010;28;20028;-45
2023/07/13 12:33:50;;;;;;;;;;;24.90;95.80;;;;;;5074765;28;20319;-43
2023/07/13 12:36:17;;;;;;;;;;;25.00;93.80;;;;;;5081762;28;20018;-44
2023/07/13 12:38:46;;;;;;;;;;;25.10;90.80;;;;;;5094044;28;20299;-43
2023/07/13 12:41:13;;;;;;;;;;;25.20;92.30;;;;;;5093269;28;20014;-44
2023/07/13 12:43:41;;;;;;;;;;;25.30;91.80;;;;;;5109074;27;20163;-44
2023/07/13 12:46:16;;;;;;;;;;;25.40;91.50;;;;;;5076577;28;19928;-45
2023/07/13 12:48:45;;;;;;;;;;;25.60;90.60;;;;;;5090276;28;19984;-44
2023/07/13 12:51:12;;;;;;;;;;;25.70;89.70;;;;;;5093762;28;20012;-44
2023/07/13 12:53:40;;;;;;;;;;;25.70;89.90;;;;;;5081568;28;19924;-44
2023/07/13 12:56:07;;;;;;;;;;;25.80;85.80;;;;;;5082875;28;20315;-44
2023/07/13 12:58:44;;;;;;;;;;;25.80;87.60;;;;;;5071305;28;19928;-44
2023/07/13 13:01:13;;;;;;;;;;;25.90;87.30;;;;;;5080556;28;19979;-45
2023/07/13 13:03:41;;;;;;;;;;;26.10;89.00;;;;;;5126935;27;20402;-44
2023/07/13 13:06:19;;;;;;;;;;;26.40;87.30;;;;;;5093487;28;19938;-44
2023/07/13 13:08:48;;;;;;;;;;;26.50;85.80;;;;;;5071277;28;21590;-43
2023/07/13 13:11:16;;;;;;;;;;;26.60;85.30;;;;;;5096011;28;19976;-44
2023/07/13 13:13:42;;;;;;;;;;;26.50;85.20;;;;;;5071173;28;20015;-43
2023/07/13 13:16:10;;;;;;;;;;;26.50;87.50;;;;;;5073162;28;20392;-45
2023/07/13 13:18:38;;;;;;;;;;;26.70;88.10;;;;;;5072011;28;19924;-44
2023/07/13 13:21:05;;;;;;;;;;;26.80;87.30;;;;;;5078719;28;20380;-44
2023/07/13 13:23:32;;;;;;;;;;;26.90;85.00;;;;;;5072931;28;19970;-43
2023/07/13 13:26:00;;;;;;;;;;;26.60;80.00;;;;;;5070973;28;19928;-43
2023/07/13 13:28:27;;;;;;;;;;;26.30;82.70;;;;;;5069694;28;19925;-44
2023/07/13 13:30:55;;;;;;;;;;;26.10;84.10;;;;;;5076538;28;19924;-44
2023/07/13 13:33:22;;;;;;;;;;;25.90;80.30;;;;;;5088426;28;19930;-44
2023/07/13 13:35:50;;;;;;;;;;;25.60;82.20;;;;;;5088613;28;19924;-44
2023/07/13 13:38:17;;;;;;;;;;;25.40;84.20;;;;;;5085786;28;20407;-44
2023/07/13 13:40:45;;;;;;;;;;;25.20;85.00;;;;;;5075614;28;19968;-45
2023/07/13 13:43:15;;;;;;;;;;;25.10;85.00;;;;;;5091901;28;19924;-43
2023/07/13 13:45:42;;;;;;;;;;;25.00;85.10;;;;;;5092943;28;19924;-44
2023/07/13 13:48:10;;;;;;;;;;;25.00;86.50;;;;;;5072512;28;19967;-44
2023/07/13 13:50:37;;;;;;;;;;;25.00;85.80;;;;;;5070220;28;19931;-44
2023/07/13 13:53:05;;;;;;;;;;;24.80;81.20;;;;;;5091029;28;20015;-44
2023/07/13 13:55:32;;;;;;;;;;;24.70;83.30;;;;;;5086820;28;19931;-44
2023/07/13 13:57:59;;;;;;;;;;;24.70;81.50;;;;;;5070662;28;19925;-44
2023/07/13 14:00:25;;;;;;;;;;;24.70;83.10;;;;;;5058054;28;19948;-43
2023/07/13 14:02:54;;;;;;;;;;;24.80;82.20;;;;;;5075495;28;19924;-43
2023/07/13 14:05:22;;;;;;;;;;;24.80;83.90;;;;;;5070794;28;19928;-44
2023/07/13 14:07:49;;;;;;;;;;;25.00;84.60;;;;;;5070548;28;19931;-44
2023/07/13 14:10:18;;;;;;;;;;;25.20;83.40;;;;;;5060459;28;20056;-42
2023/07/13 14:12:45;;;;;;;;;;;25.30;82.10;;;;;;5075176;28;19932;-45
2023/07/13 14:15:16;;;;;;;;;;;25.40;82.50;;;;;;5071263;28;19951;-45
2023/07/13 14:17:43;;;;;;;;;;;25.50;81.20;;;;;;5069269;28;19932;-44
2023/07/13 14:20:10;;;;;;;;;;;25.40;83.80;;;;;;5071804;28;20312;-44